Time;durP1;ratioP1;P1;durP2;ratioP2;P2;SDS_P1;SDS_P2;PMS_P1;PMS_P2;Temp;Humidity;BMP_temperature;BMP_pressure;BME280_temperature;BME280_humidity;BME280_pressure;Samples;Min_cycle;Max_cycle;Signal;HPM_P1;HPM_P2
2021/12/14 00:01:02;;;;;;;26.40;12.15;;;6.70;91.60;;;;;;5113037;28;20290;-57
2021/12/14 00:03:32;;;;;;;22.92;11.98;;;6.70;91.50;;;;;;5111574;28;20210;-58
2021/12/14 00:05:59;;;;;;;25.92;12.13;;;6.60;91.30;;;;;;5113020;28;20298;-57
2021/12/14 00:08:31;;;;;;;19.88;11.30;;;6.60;91.80;;;;;;5112703;28;20209;-62
2021/12/14 00:11:23;;;;;;;21.02;11.68;;;6.60;91.80;;;;;;5112919;28;20658;-58
2021/12/14 00:13:57;;;;;;;22.02;11.73;;;6.80;91.80;;;;;;5112968;28;20560;-58
2021/12/14 00:16:25;;;;;;;22.67;12.13;;;7.00;91.40;;;;;;5112829;28;20194;-61
2021/12/14 00:18:52;;;;;;;30.90;14.40;;;7.10;91.00;;;;;;5111477;28;20211;-57
2021/12/14 00:21:28;;;;;;;35.00;12.68;;;7.20;90.40;;;;;;5112887;28;20206;-58
2021/12/14 00:24:07;;;;;;;27.52;11.50;;;7.10;89.70;;;;;;5112810;28;20293;-58
2021/12/14 00:26:35;;;;;;;21.40;11.32;;;7.10;89.70;;;;;;5112959;28;20223;-58
2021/12/14 00:29:05;;;;;;;19.42;10.43;;;7.10;89.50;;;;;;5115971;28;20696;-57
2021/12/14 00:31:32;;;;;;;41.40;11.55;;;7.20;89.70;;;;;;5116247;28;20566;-57
2021/12/14 00:34:03;;;;;;;15.90;9.38;;;7.00;89.70;;;;;;5115044;28;20204;-57
2021/12/14 00:36:29;;;;;;;25.48;12.77;;;7.00;89.50;;;;;;5116423;28;20211;-57
2021/12/14 00:38:57;;;;;;;20.77;10.57;;;7.00;89.90;;;;;;5116224;28;20294;-61
2021/12/14 00:41:30;;;;;;;25.88;10.02;;;7.00;89.90;;;;;;5116086;28;20204;-57
2021/12/14 00:43:58;;;;;;;17.67;9.98;;;6.70;90.00;;;;;;5115907;28;20231;-60
2021/12/14 00:46:26;;;;;;;15.07;8.68;;;6.70;90.70;;;;;;5116107;28;20210;-57
2021/12/14 00:48:55;;;;;;;21.67;10.07;;;6.50;91.00;;;;;;5114682;28;20235;-57
2021/12/14 00:51:27;;;;;;;18.88;10.65;;;6.40;91.40;;;;;;5115923;28;20199;-57
2021/12/14 00:53:55;;;;;;;14.68;8.15;;;6.40;91.90;;;;;;5115823;28;20790;-60
2021/12/14 00:56:22;;;;;;;16.48;8.65;;;6.20;92.30;;;;;;5115752;28;20285;-57
2021/12/14 00:58:49;;;;;;;17.00;8.88;;;6.00;93.20;;;;;;5115809;28;20294;-57
2021/12/14 01:01:20;;;;;;;16.33;8.52;;;6.00;93.60;;;;;;5115614;28;20242;-56
2021/12/14 01:03:54;;;;;;;17.42;8.68;;;6.10;93.50;;;;;;5114297;28;20299;-56
2021/12/14 01:06:29;;;;;;;22.90;9.65;;;6.00;93.70;;;;;;5115586;28;20210;-55
2021/12/14 01:08:56;;;;;;;17.02;8.23;;;6.00;94.20;;;;;;5115366;28;20295;-56
2021/12/14 01:11:28;;;;;;;25.08;9.93;;;6.20;93.70;;;;;;5115441;28;20290;-56
2021/12/14 01:14:03;;;;;;;17.00;8.65;;;6.30;93.00;;;;;;5115457;27;20195;-56
2021/12/14 01:16:37;;;;;;;13.90;7.97;;;6.40;92.60;;;;;;5115379;28;20199;-58
2021/12/14 01:19:15;;;;;;;17.95;7.55;;;6.40;92.60;;;;;;5114111;28;20203;-56
2021/12/14 01:22:10;;;;;;;17.88;8.60;;;6.30;92.00;;;;;;5115234;28;20210;-57
2021/12/14 01:25:00;;;;;;;16.30;7.63;;;6.20;92.20;;;;;;5115190;28;20203;-57
2021/12/14 01:27:32;;;;;;;17.48;7.72;;;6.20;92.90;;;;;;5115238;28;20248;-58
2021/12/14 01:30:04;;;;;;;14.50;7.47;;;6.40;92.70;;;;;;5115205;28;20313;-58
2021/12/14 01:32:35;;;;;;;17.08;8.07;;;6.40;92.00;;;;;;5113815;28;20249;-58
2021/12/14 01:35:11;;;;;;;14.68;7.82;;;6.40;92.20;;;;;;5115153;28;20199;-58
2021/12/14 01:37:43;;;;;;;17.55;8.52;;;6.30;92.00;;;;;;5115124;28;20730;-57
2021/12/14 01:40:18;;;;;;;23.20;9.45;;;6.30;92.50;;;;;;5114280;28;20207;-61
2021/12/14 01:42:47;;;;;;;16.88;8.30;;;6.40;92.70;;;;;;5114830;28;20314;-58
2021/12/14 01:45:18;;;;;;;22.17;8.82;;;6.50;92.40;;;;;;5114944;28;20662;-57
2021/12/14 01:47:50;;;;;;;28.70;9.13;;;6.60;91.80;;;;;;5113588;28;20592;-63
2021/12/14 01:50:25;;;;;;;14.68;8.68;;;6.70;91.20;;;;;;5114735;28;20237;-57
2021/12/14 01:52:52;;;;;;;19.73;8.35;;;6.70;90.90;;;;;;5114874;28;20285;-57
2021/12/14 01:55:24;;;;;;;17.48;8.27;;;6.70;91.10;;;;;;5114755;27;20207;-61
2021/12/14 01:57:54;;;;;;;23.23;9.43;;;6.60;91.10;;;;;;5114698;28;20203;-58
2021/12/14 02:00:27;;;;;;;55.15;12.07;;;6.60;91.60;;;;;;5114608;28;20199;-58
2021/12/14 02:02:55;;;;;;;38.08;10.73;;;6.60;91.40;;;;;;5113238;28;20203;-61
2021/12/14 02:05:27;;;;;;;14.40;7.40;;;6.70;91.30;;;;;;5114618;28;20294;-58
2021/12/14 02:07:56;;;;;;;28.88;10.70;;;6.70;91.10;;;;;;5114536;28;20204;-61
2021/12/14 02:10:27;;;;;;;15.90;8.52;;;6.70;90.80;;;;;;5114422;28;20226;-57
2021/12/14 02:12:54;;;;;;;26.10;9.43;;;6.70;90.10;;;;;;5114470;28;20239;-62
2021/12/14 02:15:26;;;;;;;52.90;13.43;;;6.50;90.80;;;;;;5114295;28;20203;-57
2021/12/14 02:17:55;;;;;;;36.15;8.98;;;6.40;91.00;;;;;;5112988;28;20203;-62
2021/12/14 02:20:27;;;;;;;28.98;9.05;;;6.40;90.80;;;;;;5114307;27;20203;-57
2021/12/14 02:22:56;;;;;;;14.20;7.95;;;6.40;91.10;;;;;;5114206;28;20210;-58
2021/12/14 02:25:23;;;;;;;15.57;8.15;;;6.40;91.30;;;;;;5114142;28;20298;-57
2021/12/14 02:27:53;;;;;;;12.52;6.95;;;6.40;91.20;;;;;;5114123;28;20636;-60
2021/12/14 02:30:24;;;;;;;14.40;7.53;;;6.40;91.40;;;;;;5113873;28;20322;-57
2021/12/14 02:32:51;;;;;;;12.23;6.57;;;6.30;91.30;;;;;;5112651;28;20223;-60
2021/12/14 02:35:21;;;;;;;15.68;7.03;;;6.30;91.50;;;;;;5113889;28;20206;-57
2021/12/14 02:37:51;;;;;;;10.60;6.10;;;6.20;92.10;;;;;;5113998;28;20210;-56
2021/12/14 02:40:31;;;;;;;43.38;8.18;;;6.20;92.30;;;;;;5113835;28;20231;-57
2021/12/14 02:43:01;;;;;;;34.85;9.52;;;6.30;92.20;;;;;;5113683;28;20258;-57
2021/12/14 02:45:28;;;;;;;23.25;8.55;;;6.20;92.20;;;;;;5113772;28;20646;-58
2021/12/14 02:47:56;;;;;;;17.25;8.70;;;6.30;92.10;;;;;;5112444;28;20559;-59
2021/12/14 02:50:25;;;;;;;14.40;7.20;;;6.30;91.80;;;;;;5113101;28;20588;-58
2021/12/14 02:52:52;;;;;;;11.98;6.70;;;6.40;91.90;;;;;;5113346;28;20203;-58
2021/12/14 02:55:23;;;;;;;22.27;7.95;;;6.40;91.60;;;;;;5113589;28;20205;-57
2021/12/14 02:57:53;;;;;;;13.52;7.30;;;6.50;91.70;;;;;;5113705;28;20207;-57
2021/12/14 03:00:25;;;;;;;26.85;8.95;;;6.60;91.60;;;;;;5113545;28;20351;-57
2021/12/14 03:02:53;;;;;;;13.25;7.07;;;6.70;91.10;;;;;;5112353;28;20195;-58
2021/12/14 03:05:23;;;;;;;23.77;7.25;;;6.70;90.90;;;;;;5113532;28;20757;-60
2021/12/14 03:07:54;;;;;;;73.00;12.48;;;6.70;90.90;;;;;;5113457;28;20287;-56
2021/12/14 03:10:35;;;;;;;20.92;7.28;;;6.80;90.80;;;;;;5113403;28;20241;-57
2021/12/14 03:13:07;;;;;;;75.25;10.85;;;6.80;90.00;;;;;;5113501;28;20235;-57
2021/12/14 03:15:42;;;;;;;45.80;9.68;;;6.80;90.20;;;;;;5113349;28;20560;-56
2021/12/14 03:18:14;;;;;;;17.15;6.72;;;6.80;90.00;;;;;;5111975;28;20226;-57
2021/12/14 03:20:43;;;;;;;12.18;7.00;;;6.80;90.30;;;;;;5113385;28;20203;-57
2021/12/14 03:23:13;;;;;;;12.43;6.55;;;6.90;90.20;;;;;;5113349;28;20290;-56
2021/12/14 03:25:45;;;;;;;59.90;12.18;;;6.90;89.90;;;;;;5113406;28;20207;-56
2021/12/14 03:28:15;;;;;;;11.73;5.90;;;7.00;89.70;;;;;;5113339;28;20295;-56
2021/12/14 03:30:53;;;;;;;27.13;7.30;;;7.00;89.60;;;;;;5112982;28;20327;-57
2021/12/14 03:33:23;;;;;;;14.98;7.60;;;7.00;89.60;;;;;;5112078;28;20419;-56
2021/12/14 03:35:52;;;;;;;16.73;7.72;;;7.00;89.60;;;;;;5113200;28;20202;-56
2021/12/14 03:38:23;;;;;;;12.18;6.00;;;6.90;89.10;;;;;;5113292;28;20205;-56
2021/12/14 03:40:56;;;;;;;49.40;10.05;;;6.90;89.10;;;;;;5113241;28;20203;-56
2021/12/14 03:43:23;;;;;;;12.05;6.35;;;6.60;89.60;;;;;;5112905;28;20334;-56
2021/12/14 03:45:51;;;;;;;12.43;5.80;;;6.40;89.80;;;;;;5113040;28;20203;-57
2021/12/14 03:48:18;;;;;;;10.00;6.72;;;6.30;90.70;;;;;;5111657;28;20213;-56
2021/12/14 03:50:45;;;;;;;16.15;7.55;;;6.30;91.20;;;;;;5113044;28;20231;-56
2021/12/14 03:53:13;;;;;;;16.25;6.00;;;6.20;91.10;;;;;;5113052;28;20292;-56
2021/12/14 03:55:44;;;;;;;11.93;6.03;;;6.10;91.60;;;;;;5112902;28;20206;-56
2021/12/14 03:58:16;;;;;;;29.67;7.47;;;6.00;91.80;;;;;;5112928;28;20282;-56
2021/12/14 04:00:48;;;;;;;10.43;5.78;;;5.80;92.40;;;;;;5112878;28;20199;-56
2021/12/14 04:03:16;;;;;;;12.45;5.18;;;5.80;92.60;;;;;;5114026;28;20611;-56
2021/12/14 04:05:45;;;;;;;9.18;4.70;;;5.70;93.30;;;;;;5116779;28;20290;-56
2021/12/14 04:08:13;;;;;;;11.88;5.45;;;5.80;93.80;;;;;;5116651;28;20286;-58
2021/12/14 04:10:42;;;;;;;11.07;5.32;;;5.90;92.80;;;;;;5116725;28;20904;-57
2021/12/14 04:13:16;;;;;;;8.40;4.97;;;5.80;92.50;;;;;;5116758;28;20207;-58
2021/12/14 04:15:43;;;;;;;33.55;7.18;;;5.80;92.80;;;;;;5116622;28;20676;-56
2021/12/14 04:18:10;;;;;;;8.20;4.65;;;5.60;93.30;;;;;;5115543;28;20221;-59
2021/12/14 04:20:40;;;;;;;15.50;5.20;;;5.60;93.60;;;;;;5116661;28;20315;-56
2021/12/14 04:23:11;;;;;;;8.70;4.90;;;5.50;94.10;;;;;;5116830;28;20617;-56
2021/12/14 04:25:40;;;;;;;10.73;5.38;;;5.50;94.80;;;;;;5116502;28;20200;-56
2021/12/14 04:28:11;;;;;;;7.95;4.85;;;5.60;94.50;;;;;;5116494;28;20199;-56
2021/12/14 04:30:41;;;;;;;10.48;5.75;;;5.60;94.70;;;;;;5116284;28;20278;-56
2021/12/14 04:33:15;;;;;;;65.45;11.63;;;5.60;94.00;;;;;;5114977;28;20622;-56
2021/12/14 04:35:44;;;;;;;27.90;7.43;;;5.40;94.30;;;;;;5116376;28;20200;-56
2021/12/14 04:38:18;;;;;;;11.00;5.75;;;5.40;95.10;;;;;;5116276;28;20744;-56
2021/12/14 04:51:59;;;;;;;13.02;5.50;;;5.70;94.20;;;;;;5115915;28;20594;-56
2021/12/14 04:54:26;;;;;;;12.50;6.03;;;5.50;93.70;;;;;;5116025;28;20198;-56
2021/12/14 04:56:54;;;;;;;9.80;5.20;;;5.40;94.10;;;;;;5115959;28;20199;-56
2021/12/14 04:59:24;;;;;;;43.28;8.32;;;5.30;94.40;;;;;;5115923;28;20276;-56
2021/12/14 05:01:56;;;;;;;10.25;5.90;;;5.20;94.80;;;;;;5115767;28;20219;-54
2021/12/14 05:04:25;;;;;;;21.20;7.47;;;5.30;95.20;;;;;;5114401;28;20649;-54
2021/12/14 05:06:57;;;;;;;53.88;11.65;;;5.40;94.80;;;;;;5115693;28;20290;-54
2021/12/14 05:09:28;;;;;;;96.05;13.70;;;5.30;94.20;;;;;;5115597;28;20298;-55
2021/12/14 05:11:58;;;;;;;25.20;7.75;;;5.30;94.50;;;;;;5115515;28;20313;-56
2021/12/14 05:14:28;;;;;;;39.58;9.48;;;5.30;94.50;;;;;;5114587;27;20203;-55
2021/12/14 05:16:59;;;;;;;38.55;9.15;;;5.30;94.30;;;;;;5115468;27;20286;-58
2021/12/14 05:19:27;;;;;;;11.63;6.18;;;5.10;94.40;;;;;;5114179;28;20209;-60
2021/12/14 05:21:59;;;;;;;155.32;21.45;;;5.10;94.60;;;;;;5115432;28;20207;-55
2021/12/14 05:24:27;;;;;;;148.68;17.92;;;5.30;94.80;;;;;;5115289;28;20290;-54
2021/12/14 05:26:57;;;;;;;91.82;14.05;;;5.30;94.20;;;;;;5115221;28;20661;-55
2021/12/14 05:29:25;;;;;;;14.70;7.30;;;5.30;94.10;;;;;;5115098;28;20310;-56
2021/12/14 05:31:53;;;;;;;16.77;8.00;;;5.50;94.30;;;;;;5115134;28;20330;-55
2021/12/14 05:34:23;;;;;;;15.85;7.07;;;5.60;93.90;;;;;;5113800;28;20207;-55
2021/12/14 05:36:51;;;;;;;12.32;6.80;;;5.80;93.80;;;;;;5115034;28;20295;-54
2021/12/14 05:39:32;;;;;;;10.95;6.57;;;5.90;92.90;;;;;;5115037;28;20649;-54
2021/12/14 05:44:46;;;;;;;11.77;6.18;;;5.80;92.80;;;;;;5114934;28;20292;-54
2021/12/14 05:47:17;;;;;;;49.00;10.45;;;5.90;92.30;;;;;;5114841;28;20200;-54
2021/12/14 05:49:48;;;;;;;59.28;10.48;;;5.70;91.80;;;;;;5113544;28;20206;-56
2021/12/14 05:52:16;;;;;;;20.08;6.30;;;5.50;92.90;;;;;;5114752;28;20237;-53
2021/12/14 05:54:43;;;;;;;20.40;7.05;;;5.50;93.00;;;;;;5114641;28;20294;-56
2021/12/14 05:57:18;;;;;;;23.13;7.70;;;5.50;92.70;;;;;;5114813;28;20295;-56
2021/12/14 05:59:45;;;;;;;22.77;7.07;;;5.50;92.70;;;;;;5114717;28;20209;-54
2021/12/14 06:02:13;;;;;;;17.27;6.22;;;5.60;92.60;;;;;;5114696;28;20206;-56
2021/12/14 06:04:42;;;;;;;15.15;7.55;;;5.50;92.20;;;;;;5113342;28;20200;-56
2021/12/14 06:07:11;;;;;;;130.40;18.75;;;5.50;93.10;;;;;;5114459;28;20203;-55
2021/12/14 06:09:42;;;;;;;70.53;12.27;;;5.30;92.40;;;;;;5114503;28;20210;-54
2021/12/14 06:12:14;;;;;;;17.52;6.25;;;5.10;92.50;;;;;;5114451;28;20723;-55
2021/12/14 06:14:51;;;;;;;9.35;5.05;;;5.00;93.10;;;;;;5114409;28;20675;-55
2021/12/14 06:17:23;;;;;;;14.15;5.82;;;4.90;93.30;;;;;;5114438;28;20199;-55
2021/12/14 06:19:53;;;;;;;11.95;5.85;;;4.70;94.10;;;;;;5113296;27;20223;-59
2021/12/14 06:22:24;;;;;;;12.45;6.45;;;4.70;94.70;;;;;;5114253;28;20389;-54
2021/12/14 06:24:55;;;;;;;11.95;6.38;;;4.60;94.70;;;;;;5114068;28;20209;-55
2021/12/14 06:27:24;;;;;;;18.25;7.78;;;4.60;94.70;;;;;;5114261;28;20195;-54
2021/12/14 06:29:54;;;;;;;58.38;8.20;;;4.60;94.90;;;;;;5114238;28;20231;-56
2021/12/14 06:32:25;;;;;;;24.88;6.15;;;4.50;95.10;;;;;;5113923;28;20318;-54
2021/12/14 06:34:54;;;;;;;15.77;7.53;;;4.50;94.90;;;;;;5113178;28;20214;-54
2021/12/14 06:38:25;;;;;;;39.35;9.15;;;4.60;95.00;;;;;;5114073;28;20286;-54
2021/12/14 06:41:04;;;;;;;22.92;7.43;;;4.70;94.60;;;;;;5104807;28;20211;-55
2021/12/14 06:43:35;;;;;;;20.00;6.90;;;4.80;94.30;;;;;;5113775;28;20231;-58
2021/12/14 06:46:05;;;;;;;22.35;9.32;;;4.90;93.50;;;;;;5113860;28;20553;-55
2021/12/14 06:48:35;;;;;;;25.65;6.75;;;4.90;93.00;;;;;;5112453;28;20208;-59
2021/12/14 06:51:05;;;;;;;18.80;6.80;;;4.90;92.60;;;;;;5113534;28;20262;-59
2021/12/14 06:53:36;;;;;;;25.65;8.07;;;4.80;92.30;;;;;;5113661;28;20199;-60
2021/12/14 06:56:06;;;;;;;21.60;8.10;;;4.70;92.60;;;;;;5113679;28;20195;-62
2021/12/14 06:58:37;;;;;;;49.72;10.10;;;4.60;92.60;;;;;;5113553;28;20199;-62
2021/12/14 07:01:09;;;;;;;99.10;17.30;;;4.60;92.80;;;;;;5113618;28;20199;-60
2021/12/14 07:03:45;;;;;;;64.90;12.95;;;4.60;92.90;;;;;;5112033;28;20617;-57
2021/12/14 07:06:21;;;;;;;48.03;12.73;;;4.50;93.00;;;;;;5113466;28;20700;-56
2021/12/14 07:08:49;;;;;;;64.80;11.50;;;4.40;93.20;;;;;;5113455;28;20654;-62
2021/12/14 07:11:20;;;;;;;24.27;10.25;;;4.40;93.60;;;;;;5113344;28;20231;-56
2021/12/14 07:13:47;;;;;;;41.97;10.43;;;4.40;93.70;;;;;;5113293;28;20199;-58
2021/12/14 07:16:21;;;;;;;102.18;17.83;;;4.30;93.80;;;;;;5113302;28;20290;-57
2021/12/14 07:18:56;;;;;;;31.35;8.82;;;4.30;94.10;;;;;;5112061;28;20207;-59
2021/12/14 07:21:39;;;;;;;53.38;9.38;;;4.20;94.30;;;;;;5113312;28;20203;-56
2021/12/14 07:24:34;;;;;;;97.32;14.07;;;4.30;94.90;;;;;;5113310;28;20206;-54
2021/12/14 07:27:21;;;;;;;125.40;17.13;;;4.30;95.00;;;;;;5113327;28;20235;-59
2021/12/14 07:29:49;;;;;;;206.68;21.05;;;4.30;94.70;;;;;;5113183;28;20500;-57
2021/12/14 07:32:22;;;;;;;169.93;18.02;;;4.30;94.10;;;;;;5113130;28;20235;-55
2021/12/14 07:34:48;;;;;;;110.57;14.38;;;4.20;94.10;;;;;;5111728;28;20205;-55
2021/12/14 07:37:15;;;;;;;132.05;15.40;;;4.10;94.10;;;;;;5113852;28;20237;-56
2021/12/14 07:39:50;;;;;;;142.73;19.08;;;4.00;94.30;;;;;;5117505;28;20213;-56
2021/12/14 07:42:17;;;;;;;15.02;6.50;;;4.00;94.50;;;;;;5117095;28;20199;-55
2021/12/14 07:44:44;;;;;;;15.35;6.45;;;4.10;94.60;;;;;;5117365;28;20234;-55
2021/12/14 07:47:18;;;;;;;17.60;6.80;;;4.30;95.00;;;;;;5117016;28;20199;-54
2021/12/14 07:49:47;;;;;;;73.95;13.18;;;4.50;95.10;;;;;;5116149;28;20237;-56
2021/12/14 07:52:19;;;;;;;17.60;7.30;;;4.60;94.50;;;;;;5117050;28;20242;-55
2021/12/14 07:54:49;;;;;;;33.00;8.73;;;4.70;94.00;;;;;;5117072;28;20204;-58
2021/12/14 07:57:20;;;;;;;79.13;14.23;;;4.70;93.30;;;;;;5117063;28;20202;-55
2021/12/14 07:59:52;;;;;;;105.15;18.55;;;4.70;93.10;;;;;;5116768;28;20680;-57
2021/12/14 08:02:21;;;;;;;229.13;25.13;;;4.60;92.90;;;;;;5116982;28;20235;-57
2021/12/14 08:04:52;;;;;;;150.68;20.75;;;4.50;93.00;;;;;;5115575;28;20210;-55
2021/12/14 08:07:26;;;;;;;138.70;21.48;;;4.30;93.30;;;;;;5116785;28;20672;-58
2021/12/14 08:10:05;;;;;;;86.22;15.32;;;4.30;93.60;;;;;;5115990;28;20204;-57
2021/12/14 08:12:37;;;;;;;43.47;11.90;;;4.20;93.90;;;;;;5116420;28;20718;-55
2021/12/14 08:15:17;;;;;;;38.17;11.43;;;4.20;94.30;;;;;;5116617;28;20741;-56
2021/12/14 08:17:48;;;;;;;23.15;10.10;;;4.30;94.70;;;;;;5115301;28;20297;-55
2021/12/14 08:20:22;;;;;;;18.88;9.20;;;4.50;94.90;;;;;;5116625;28;20222;-54
2021/12/14 08:22:49;;;;;;;20.42;9.20;;;4.70;94.70;;;;;;5116347;28;20297;-54
2021/12/14 08:25:24;;;;;;;20.25;9.75;;;5.00;94.50;;;;;;5116324;28;20210;-56
2021/12/14 08:28:00;;;;;;;17.15;9.10;;;5.00;93.50;;;;;;5116288;27;20294;-55
2021/12/14 08:30:29;;;;;;;17.50;8.75;;;4.90;92.70;;;;;;5116400;28;20551;-56
2021/12/14 08:32:56;;;;;;;15.25;8.35;;;4.80;92.70;;;;;;5114976;28;20227;-55
2021/12/14 08:35:23;;;;;;;17.52;9.52;;;4.80;93.30;;;;;;5116133;28;20199;-54
2021/12/14 08:37:57;;;;;;;15.20;9.00;;;5.10;94.00;;;;;;5116044;28;20680;-56
2021/12/14 08:40:29;;;;;;;9.73;6.88;;;5.30;93.60;;;;;;5116177;28;20290;-57
2021/12/14 08:43:03;;;;;;;12.32;7.13;;;5.10;91.60;;;;;;5115971;28;20314;-54
2021/12/14 08:45:33;;;;;;;14.38;7.60;;;5.30;92.70;;;;;;5116015;28;20207;-56
2021/12/14 08:48:09;;;;;;;15.98;7.38;;;5.30;92.40;;;;;;5114652;28;20685;-57
2021/12/14 08:50:39;;;;;;;12.18;7.78;;;5.50;92.80;;;;;;5115852;28;20289;-55
2021/12/14 08:53:08;;;;;;;11.18;7.53;;;5.80;92.80;;;;;;5115777;28;20318;-56
2021/12/14 08:55:38;;;;;;;14.65;8.10;;;6.00;91.70;;;;;;5115903;28;20302;-58
2021/12/14 08:58:06;;;;;;;12.60;7.40;;;6.00;90.90;;;;;;5115858;28;20203;-56
2021/12/14 09:00:36;;;;;;;10.05;7.30;;;6.20;90.50;;;;;;5115774;28;20203;-56
2021/12/14 09:03:06;;;;;;;11.93;7.93;;;6.10;89.30;;;;;;5114264;28;20725;-56
2021/12/14 09:05:37;;;;;;;10.98;7.22;;;5.90;88.90;;;;;;5115598;28;20293;-56
2021/12/14 09:08:05;;;;;;;13.07;7.25;;;5.70;90.00;;;;;;5115660;28;20245;-57
2021/12/14 09:10:37;;;;;;;9.02;5.70;;;5.80;90.90;;;;;;5115600;28;20195;-57
2021/12/14 09:13:07;;;;;;;12.32;7.40;;;6.00;91.40;;;;;;5115374;28;20235;-57
2021/12/14 09:15:39;;;;;;;11.30;6.18;;;6.30;91.50;;;;;;5115616;27;20207;-56
2021/12/14 09:18:07;;;;;;;8.38;6.32;;;6.50;91.40;;;;;;5114156;28;20203;-56
2021/12/14 09:20:37;;;;;;;10.50;6.82;;;6.80;90.90;;;;;;5115684;28;20199;-56
2021/12/14 09:23:09;;;;;;;11.55;7.60;;;6.90;90.40;;;;;;5115415;28;20203;-57
2021/12/14 09:25:39;;;;;;;16.05;8.48;;;7.10;89.80;;;;;;5115367;27;20199;-56
2021/12/14 09:28:08;;;;;;;10.93;7.20;;;7.20;88.90;;;;;;5115218;27;20697;-58
2021/12/14 09:30:38;;;;;;;11.80;7.63;;;7.30;88.50;;;;;;5115244;28;20646;-57
2021/12/14 09:33:06;;;;;;;10.52;7.47;;;7.40;88.70;;;;;;5113856;28;20768;-57
2021/12/14 09:35:35;;;;;;;10.82;7.32;;;7.40;87.50;;;;;;5115112;28;20205;-56
2021/12/14 09:38:05;;;;;;;12.73;8.05;;;7.40;88.10;;;;;;5115089;27;20211;-57
2021/12/14 09:40:36;;;;;;;10.30;7.50;;;7.50;87.80;;;;;;5115097;27;20203;-56
2021/12/14 09:43:04;;;;;;;14.07;9.48;;;7.50;87.50;;;;;;5114956;28;20324;-56
2021/12/14 09:45:39;;;;;;;11.70;7.82;;;7.60;88.00;;;;;;5115080;28;20200;-57
2021/12/14 09:48:07;;;;;;;11.57;7.18;;;7.70;87.90;;;;;;5113660;28;20207;-57
2021/12/14 09:50:38;;;;;;;11.30;7.18;;;7.90;87.80;;;;;;5114839;28;20203;-58
2021/12/14 09:53:12;;;;;;;11.65;8.35;;;7.90;86.80;;;;;;5114730;28;20810;-56
2021/12/14 09:55:41;;;;;;;12.32;8.10;;;8.00;86.40;;;;;;5114827;28;20202;-56
2021/12/14 09:58:13;;;;;;;11.32;7.88;;;8.00;85.40;;;;;;5114718;28;20672;-57
2021/12/14 10:00:47;;;;;;;12.20;8.18;;;8.00;85.80;;;;;;5114051;28;20242;-57
2021/12/14 10:03:14;;;;;;;10.32;7.30;;;8.10;85.30;;;;;;5113505;28;20585;-58
2021/12/14 10:05:46;;;;;;;9.60;6.95;;;8.10;85.60;;;;;;5114552;28;20564;-58
2021/12/14 10:08:18;;;;;;;10.20;6.95;;;8.10;85.70;;;;;;5114416;28;20212;-57
2021/12/14 10:10:52;;;;;;;11.35;7.57;;;8.10;85.70;;;;;;5114436;28;20218;-57
2021/12/14 10:13:21;;;;;;;8.77;6.75;;;7.80;83.40;;;;;;5114113;28;20288;-57
2021/12/14 10:15:51;;;;;;;10.45;7.40;;;7.40;85.10;;;;;;5114238;28;20202;-58
2021/12/14 10:18:22;;;;;;;9.27;6.97;;;7.40;86.30;;;;;;5113024;28;20207;-59
2021/12/14 10:20:54;;;;;;;10.20;7.65;;;7.40;86.00;;;;;;5114316;28;20290;-55
2021/12/14 10:23:23;;;;;;;9.90;7.13;;;7.50;86.90;;;;;;5114261;28;20222;-58
2021/12/14 10:25:51;;;;;;;9.43;7.22;;;7.70;86.40;;;;;;5114140;28;20290;-57
2021/12/14 10:28:22;;;;;;;8.75;6.72;;;7.70;86.60;;;;;;5113994;28;20793;-57
2021/12/14 10:30:55;;;;;;;8.35;6.18;;;7.80;87.10;;;;;;5114170;28;20564;-57
2021/12/14 10:33:23;;;;;;;7.97;6.30;;;8.00;86.70;;;;;;5112547;28;20697;-57
2021/12/14 10:35:54;;;;;;;9.82;7.32;;;8.10;86.30;;;;;;5114073;28;20287;-57
2021/12/14 10:38:29;;;;;;;8.48;6.57;;;8.30;86.30;;;;;;5113899;28;20658;-57
2021/12/14 10:43:47;;;;;;;9.38;7.35;;;8.30;83.20;;;;;;5113744;28;20237;-56
2021/12/14 10:46:19;;;;;;;8.52;7.18;;;8.30;84.60;;;;;;5113751;28;20210;-57
2021/12/14 10:48:48;;;;;;;7.75;6.30;;;8.30;84.40;;;;;;5112297;28;20199;-57
2021/12/14 10:51:18;;;;;;;7.63;6.45;;;8.40;83.80;;;;;;5113760;28;20295;-57
2021/12/14 10:53:50;;;;;;;7.25;6.50;;;8.50;85.00;;;;;;5113610;28;20238;-58
2021/12/14 10:56:20;;;;;;;9.90;6.30;;;8.60;84.90;;;;;;5113600;28;20241;-58
2021/12/14 10:58:51;;;;;;;9.25;7.13;;;8.80;83.60;;;;;;5113596;28;20286;-57
2021/12/14 11:01:23;;;;;;;7.30;6.50;;;8.90;84.10;;;;;;5113483;28;20210;-59
2021/12/14 11:03:53;;;;;;;10.05;6.90;;;9.10;82.90;;;;;;5112234;28;20211;-56
2021/12/14 11:06:28;;;;;;;9.98;7.18;;;9.30;82.20;;;;;;5113523;28;20205;-57
2021/12/14 11:09:38;;;;;;;8.18;6.18;;;9.50;82.60;;;;;;5113444;28;20607;-58
2021/12/14 11:11:50;;;;;;;8.00;6.40;;;9.60;82.10;;;;;;5112351;28;20646;-57
2021/12/14 11:14:21;;;;;;;9.57;6.57;;;9.60;81.10;;;;;;5113277;28;20210;-57
2021/12/14 11:19:38;;;;;;;11.65;6.72;;;9.70;81.50;;;;;;5112133;28;20252;-60
2021/12/14 11:22:15;;;;;;;10.50;7.13;;;9.80;81.30;;;;;;5113281;28;20203;-57
2021/12/14 11:24:44;;;;;;;9.50;6.53;;;10.00;80.40;;;;;;5113254;28;20209;-59
2021/12/14 11:27:18;;;;;;;6.90;6.20;;;10.30;79.90;;;;;;5113053;28;20784;-58
2021/12/14 11:29:51;;;;;;;6.32;5.40;;;10.90;79.40;;;;;;5113312;28;20285;-58
2021/12/14 11:32:20;;;;;;;7.15;6.35;;;11.50;76.00;;;;;;5113163;28;20223;-59
2021/12/14 11:34:48;;;;;;;8.07;7.28;;;12.30;75.50;;;;;;5111776;28;20238;-59
2021/12/14 11:37:21;;;;;;;9.27;7.40;;;12.80;71.40;;;;;;5113300;28;20620;-60
2021/12/14 11:39:52;;;;;;;7.07;6.38;;;13.30;72.70;;;;;;5113137;28;20728;-61
2021/12/14 11:42:24;;;;;;;7.25;6.65;;;13.70;70.80;;;;;;5113008;28;20207;-62
2021/12/14 11:44:56;;;;;;;7.80;7.28;;;14.40;71.00;;;;;;5113193;28;20210;-61
2021/12/14 11:50:21;;;;;;;10.70;9.10;;;16.50;68.10;;;;;;5109431;28;20207;-62
2021/12/14 11:52:52;;;;;;;9.63;8.83;;;17.70;66.20;;;;;;5113001;28;20699;-63
2021/12/14 11:55:28;;;;;;;10.60;9.80;;;18.50;64.10;;;;;;5113096;28;20452;-62
2021/12/14 11:58:13;;;;;;;10.97;10.10;;;18.90;63.40;;;;;;5113012;28;20484;-61
2021/12/14 12:00:45;;;;;;;10.83;9.93;;;18.80;60.00;;;;;;5113030;28;20982;-62
2021/12/14 12:03:21;;;;;;;9.80;9.10;;;18.60;59.40;;;;;;5111616;28;20449;-62
2021/12/14 12:06:02;;;;;;;11.90;11.10;;;18.00;55.30;;;;;;5113069;28;20448;-62
2021/12/14 12:11:18;;;;;;;11.90;11.00;;;16.80;64.00;;;;;;5114621;28;20470;-63
2021/12/14 12:13:47;;;;;;;12.17;11.17;;;17.50;63.60;;;;;;5114402;28;20583;-62
2021/12/14 12:16:18;;;;;;;11.87;11.07;;;18.00;62.90;;;;;;5113731;28;20449;-61
2021/12/14 12:19:10;;;;;;;12.17;11.33;;;18.30;60.60;;;;;;5111714;28;20520;-62
2021/12/14 12:21:38;;;;;;;11.90;10.80;;;18.40;59.40;;;;;;5113080;28;20536;-62
2021/12/14 12:24:06;;;;;;;11.60;10.60;;;18.30;59.10;;;;;;5115406;28;20448;-62
2021/12/14 12:26:34;;;;;;;11.90;11.00;;;17.90;59.40;;;;;;5117807;28;20545;-63
2021/12/14 12:29:06;;;;;;;12.60;11.60;;;17.20;58.00;;;;;;5117241;28;20936;-63
2021/12/14 12:31:39;;;;;;;12.43;11.48;;;16.50;59.30;;;;;;5116757;28;20264;-63
2021/12/14 12:34:11;;;;;;;12.85;11.82;;;15.80;60.30;;;;;;5115124;28;20317;-62
2021/12/14 12:36:40;;;;;;;13.45;12.55;;;15.20;61.60;;;;;;5116545;28;20206;-60
2021/12/14 12:39:10;;;;;;;14.18;12.70;;;14.80;62.60;;;;;;5116318;28;20210;-60
2021/12/14 12:41:44;;;;;;;13.35;12.25;;;14.40;63.70;;;;;;5116227;27;20206;-59
2021/12/14 12:44:14;;;;;;;13.27;12.20;;;14.10;63.90;;;;;;5115968;28;20238;-59
2021/12/14 12:46:45;;;;;;;14.48;13.27;;;13.80;64.70;;;;;;5116084;28;20230;-59
2021/12/14 12:49:15;;;;;;;13.52;12.32;;;13.40;65.00;;;;;;5114747;28;20210;-59
2021/12/14 12:52:13;;;;;;;14.07;12.70;;;13.20;66.30;;;;;;5115996;28;20282;-61
2021/12/14 12:54:56;;;;;;;14.30;13.00;;;13.00;66.80;;;;;;5115859;28;20207;-59
2021/12/14 12:57:53;;;;;;;13.82;12.45;;;12.90;67.20;;;;;;5115967;28;20228;-59
2021/12/14 13:00:27;;;;;;;14.15;12.88;;;12.80;66.80;;;;;;5115654;28;20203;-59
2021/12/14 13:03:00;;;;;;;14.18;12.70;;;12.70;67.20;;;;;;5114407;28;20672;-60
2021/12/14 13:05:31;;;;;;;18.73;12.88;;;12.70;68.10;;;;;;5115789;28;20203;-61
2021/12/14 13:08:06;;;;;;;15.52;14.07;;;12.70;68.20;;;;;;5115656;28;20202;-59
2021/12/14 13:10:36;;;;;;;12.75;11.40;;;12.70;67.80;;;;;;5115587;28;20290;-59
2021/12/14 13:13:10;;;;;;;14.07;12.88;;;12.60;67.70;;;;;;5115475;28;20313;-59
2021/12/14 13:15:53;;;;;;;13.93;12.55;;;12.20;68.50;;;;;;5115503;28;20238;-61
2021/12/14 13:18:39;;;;;;;15.40;14.07;;;12.10;69.10;;;;;;5114175;28;20672;-58
2021/12/14 13:21:14;;;;;;;14.05;12.68;;;12.10;69.30;;;;;;5115253;28;20226;-59
2021/12/14 13:23:52;;;;;;;14.60;13.20;;;12.00;69.30;;;;;;5115374;28;20206;-58
2021/12/14 13:26:34;;;;;;;15.48;13.88;;;11.80;69.40;;;;;;5115252;28;20258;-59
2021/12/14 13:29:06;;;;;;;14.35;12.95;;;11.70;69.60;;;;;;5115318;28;20278;-58
2021/12/14 13:31:36;;;;;;;14.07;12.57;;;11.50;70.00;;;;;;5115052;28;20202;-59